Time;durP1;ratioP1;P1;durP2;ratioP2;P2;SDS_P1;SDS_P2;PMS_P1;PMS_P2;Temp;Humidity;BMP_temperature;BMP_pressure;BME280_temperature;BME280_humidity;BME280_pressure;Samples;Min_cycle;Max_cycle;Signal;HPM_P1;HPM_P2
2023/01/04 00:00:19;;;;;;;;;;;7.30;99.90;;;;;;5067601;28;19995;-69
2023/01/04 00:02:44;;;;;;;;;;;7.30;99.90;;;;;;5067517;28;19913;-69
2023/01/04 00:05:10;;;;;;;;;;;7.30;99.90;;;;;;5072284;28;19912;-70
2023/01/04 00:07:35;;;;;;;;;;;7.30;99.90;;;;;;5067025;28;19916;-70
2023/01/04 00:10:01;;;;;;;;;;;7.30;99.90;;;;;;5066094;28;20513;-70
2023/01/04 00:12:26;;;;;;;;;;;7.30;99.90;;;;;;5067109;28;19913;-70
2023/01/04 00:14:52;;;;;;;;;;;7.30;99.90;;;;;;5067283;28;19920;-69
2023/01/04 00:17:17;;;;;;;;;;;7.30;99.90;;;;;;5069618;28;20297;-70
2023/01/04 00:19:43;;;;;;;;;;;7.30;99.90;;;;;;5067570;28;19926;-70
2023/01/04 00:22:08;;;;;;;;;;;7.30;99.90;;;;;;5065946;28;20440;-70
2023/01/04 00:24:34;;;;;;;;;;;7.30;99.90;;;;;;5067450;28;19912;-70
2023/01/04 00:26:59;;;;;;;;;;;7.30;99.90;;;;;;5069162;28;20585;-70
2023/01/04 00:29:24;;;;;;;;;;;7.30;99.90;;;;;;5063956;28;19913;-70
2023/01/04 00:31:50;;;;;;;;;;;7.30;99.90;;;;;;5066974;28;19916;-70
2023/01/04 00:34:16;;;;;;;;;;;7.30;99.90;;;;;;5066770;28;19924;-70
2023/01/04 00:36:42;;;;;;;;;;;7.30;99.90;;;;;;5067444;28;19912;-70
2023/01/04 00:39:09;;;;;;;;;;;7.30;99.90;;;;;;5067057;28;19966;-70
2023/01/04 00:41:35;;;;;;;;;;;7.30;99.90;;;;;;5067137;28;19912;-70
2023/01/04 00:44:02;;;;;;;;;;;7.30;99.90;;;;;;5066915;28;20539;-69
2023/01/04 00:46:28;;;;;;;;;;;7.30;99.90;;;;;;5066910;28;20262;-70
2023/01/04 00:48:53;;;;;;;;;;;7.30;99.90;;;;;;5082112;28;19916;-69
2023/01/04 00:51:18;;;;;;;;;;;7.30;99.90;;;;;;5086933;28;20560;-70
2023/01/04 00:53:44;;;;;;;;;;;7.30;99.90;;;;;;5087166;28;19916;-69
2023/01/04 00:56:09;;;;;;;;;;;7.40;99.90;;;;;;5087194;28;19951;-69
2023/01/04 00:58:35;;;;;;;;;;;7.30;99.90;;;;;;5068655;28;19934;-70
2023/01/04 01:01:06;;;;;;;;;;;7.30;99.90;;;;;;5066351;28;19920;-70
2023/01/04 01:03:32;;;;;;;;;;;7.30;99.90;;;;;;5066530;28;19912;-70
2023/01/04 01:06:01;;;;;;;;;;;7.30;99.90;;;;;;5067092;28;19913;-70
2023/01/04 01:08:27;;;;;;;;;;;7.30;99.90;;;;;;5067149;28;19908;-70
2023/01/04 01:10:53;;;;;;;;;;;7.30;99.90;;;;;;5066716;28;20267;-70
2023/01/04 01:13:19;;;;;;;;;;;7.30;99.90;;;;;;5066350;28;19923;-70
2023/01/04 01:15:45;;;;;;;;;;;7.30;99.90;;;;;;5066422;28;19920;-70
2023/01/04 01:18:10;;;;;;;;;;;7.40;99.90;;;;;;5075534;28;19912;-70
2023/01/04 01:20:42;;;;;;;;;;;7.30;99.90;;;;;;5086509;28;19912;-70
2023/01/04 01:23:08;;;;;;;;;;;7.40;99.90;;;;;;5085423;28;19955;-70
2023/01/04 01:25:34;;;;;;;;;;;7.40;99.90;;;;;;5086585;28;19916;-71
2023/01/04 01:27:59;;;;;;;;;;;7.40;99.90;;;;;;5069368;28;19919;-70
2023/01/04 01:30:25;;;;;;;;;;;7.40;99.90;;;;;;5065996;28;19919;-70
2023/01/04 01:32:50;;;;;;;;;;;7.40;99.90;;;;;;5066488;28;19936;-70
2023/01/04 01:35:16;;;;;;;;;;;7.40;99.90;;;;;;5065721;28;19952;-71
2023/01/04 01:37:41;;;;;;;;;;;7.40;99.90;;;;;;5066261;28;20015;-70
2023/01/04 01:40:07;;;;;;;;;;;7.40;99.90;;;;;;5066267;28;20327;-70
2023/01/04 01:42:33;;;;;;;;;;;7.40;99.90;;;;;;5065893;28;20007;-70
2023/01/04 01:44:58;;;;;;;;;;;7.40;99.90;;;;;;5066413;28;19919;-70
2023/01/04 01:47:26;;;;;;;;;;;7.40;99.90;;;;;;5069246;28;20254;-70
2023/01/04 01:49:53;;;;;;;;;;;7.40;99.90;;;;;;5085959;28;19934;-70
2023/01/04 01:52:23;;;;;;;;;;;7.40;99.90;;;;;;5085953;28;19943;-70
2023/01/04 01:54:52;;;;;;;;;;;7.40;99.90;;;;;;5086780;28;19916;-70
2023/01/04 01:57:19;;;;;;;;;;;7.40;99.90;;;;;;5079142;28;20300;-70
2023/01/04 01:59:47;;;;;;;;;;;7.40;99.90;;;;;;5064455;28;20015;-70
2023/01/04 02:02:12;;;;;;;;;;;7.40;99.90;;;;;;5066372;28;20349;-70
2023/01/04 02:04:40;;;;;;;;;;;7.40;99.90;;;;;;5065636;28;20019;-70
2023/01/04 02:07:06;;;;;;;;;;;7.40;99.90;;;;;;5065589;28;19968;-70
2023/01/04 02:09:32;;;;;;;;;;;7.40;99.90;;;;;;5064345;28;20317;-70
2023/01/04 02:11:57;;;;;;;;;;;7.40;99.90;;;;;;5066161;28;19948;-70
2023/01/04 02:14:25;;;;;;;;;;;7.40;99.90;;;;;;5066109;28;19928;-70
2023/01/04 02:17:09;;;;;;;;;;;7.40;99.90;;;;;;5066219;28;19908;-70
2023/01/04 02:19:54;;;;;;;;;;;7.40;99.90;;;;;;5045273;28;19912;-70
2023/01/04 02:22:19;;;;;;;;;;;7.40;99.90;;;;;;5063097;28;19916;-70
2023/01/04 02:24:54;;;;;;;;;;;7.40;99.90;;;;;;5067677;28;20542;-70
2023/01/04 02:27:22;;;;;;;;;;;7.40;99.90;;;;;;5067477;28;20483;-70
2023/01/04 02:29:59;;;;;;;;;;;7.40;99.90;;;;;;5068336;28;19930;-70
2023/01/04 02:32:37;;;;;;;;;;;7.50;99.90;;;;;;5069422;28;20639;-70
2023/01/04 02:35:18;;;;;;;;;;;7.50;99.90;;;;;;5069122;28;20030;-70
2023/01/04 02:37:46;;;;;;;;;;;7.50;99.90;;;;;;5069285;28;19916;-70
2023/01/04 02:40:21;;;;;;;;;;;7.50;99.90;;;;;;5067319;28;20439;-70
2023/01/04 02:45:55;;;;;;;;;;;7.50;99.90;;;;;;5069231;28;20559;-70
2023/01/04 02:51:04;;;;;;;;;;;7.50;99.90;;;;;;5088966;28;19938;-70
2023/01/04 02:53:40;;;;;;;;;;;7.50;99.90;;;;;;5088029;28;20532;-70
2023/01/04 02:56:18;;;;;;;;;;;7.50;99.90;;;;;;5089488;28;20015;-70
2023/01/04 02:58:53;;;;;;;;;;;7.50;99.90;;;;;;5069002;28;19912;-70
2023/01/04 03:07:11;;;;;;;;;;;7.50;99.90;;;;;;5066610;28;19938;-70
2023/01/04 03:09:40;;;;;;;;;;;7.50;99.90;;;;;;5068297;28;19919;-70
2023/01/04 03:14:59;;;;;;;;;;;7.50;99.90;;;;;;5068234;28;20319;-70
2023/01/04 03:17:25;;;;;;;;;;;7.60;99.90;;;;;;5068760;28;19912;-69
2023/01/04 03:19:53;;;;;;;;;;;7.60;99.90;;;;;;5066925;28;19913;-70
2023/01/04 03:36:31;;;;;;;;;;;7.60;99.90;;;;;;5061931;28;19919;-70
2023/01/04 03:50:32;;;;;;;;;;;7.60;99.90;;;;;;5067475;28;19958;-70
2023/01/04 03:52:58;;;;;;;;;;;7.60;99.90;;;;;;5067600;28;19919;-70
2023/01/04 03:55:24;;;;;;;;;;;7.60;99.90;;;;;;5067621;28;19921;-70
2023/01/04 03:57:50;;;;;;;;;;;7.60;99.90;;;;;;5067722;28;20421;-71
2023/01/04 04:00:17;;;;;;;;;;;7.60;99.90;;;;;;5066916;28;19958;-70
2023/01/04 04:02:44;;;;;;;;;;;7.60;99.90;;;;;;5078729;28;20450;-70
2023/01/04 04:10:43;;;;;;;;;;;7.70;99.90;;;;;;5046969;28;20457;-70
2023/01/04 04:13:08;;;;;;;;;;;7.60;99.90;;;;;;5047330;28;19917;-70
2023/01/04 04:15:35;;;;;;;;;;;7.70;99.90;;;;;;5052006;28;19916;-70
2023/01/04 04:18:01;;;;;;;;;;;7.70;99.90;;;;;;5066966;28;20383;-70
2023/01/04 04:20:26;;;;;;;;;;;7.70;99.90;;;;;;5066683;28;20049;-70
2023/01/04 04:22:52;;;;;;;;;;;7.70;99.90;;;;;;5067019;28;19961;-70
2023/01/04 04:25:18;;;;;;;;;;;7.70;99.90;;;;;;5066884;28;19908;-70
2023/01/04 04:27:43;;;;;;;;;;;7.70;99.90;;;;;;5070436;28;19919;-70
2023/01/04 04:30:09;;;;;;;;;;;7.70;99.90;;;;;;5066472;28;19985;-70
2023/01/04 04:32:34;;;;;;;;;;;7.70;99.90;;;;;;5066562;28;19913;-70
2023/01/04 04:35:00;;;;;;;;;;;7.70;99.90;;;;;;5065560;28;19923;-70
2023/01/04 04:37:27;;;;;;;;;;;7.70;99.90;;;;;;5064737;28;19912;-70
2023/01/04 04:39:52;;;;;;;;;;;7.70;99.90;;;;;;5080838;28;19911;-70
2023/01/04 04:42:18;;;;;;;;;;;7.70;99.90;;;;;;5084997;28;20286;-70
2023/01/04 04:44:43;;;;;;;;;;;7.70;99.90;;;;;;5085711;28;20322;-69
2023/01/04 04:47:09;;;;;;;;;;;7.70;99.90;;;;;;5068189;28;20734;-70
2023/01/04 04:49:34;;;;;;;;;;;7.70;99.90;;;;;;5065525;28;19912;-70
2023/01/04 04:52:00;;;;;;;;;;;7.70;99.90;;;;;;5066449;28;20039;-70
2023/01/04 04:54:25;;;;;;;;;;;7.80;99.90;;;;;;5066960;28;19917;-70
2023/01/04 04:56:51;;;;;;;;;;;7.80;99.90;;;;;;5070594;28;20609;-70
2023/01/04 04:59:16;;;;;;;;;;;7.80;99.90;;;;;;5086901;28;20042;-70
2023/01/04 05:01:42;;;;;;;;;;;7.80;99.90;;;;;;5084087;28;20651;-70
2023/01/04 05:04:07;;;;;;;;;;;7.80;99.90;;;;;;5066590;28;19921;-70
2023/01/04 05:06:33;;;;;;;;;;;7.80;99.90;;;;;;5066335;28;20333;-70
2023/01/04 05:08:58;;;;;;;;;;;7.80;99.90;;;;;;5074032;28;19912;-70
2023/01/04 05:14:08;;;;;;;;;;;7.80;99.90;;;;;;5086326;28;19926;-70
2023/01/04 05:16:34;;;;;;;;;;;7.80;99.90;;;;;;5073902;28;19991;-70
2023/01/04 05:19:00;;;;;;;;;;;7.80;99.90;;;;;;5064738;28;19970;-70
2023/01/04 05:21:25;;;;;;;;;;;7.80;99.90;;;;;;5066620;28;19920;-70
2023/01/04 05:23:50;;;;;;;;;;;7.80;99.90;;;;;;5065144;28;19957;-70
2023/01/04 05:26:16;;;;;;;;;;;7.80;99.90;;;;;;5065301;28;19913;-70
2023/01/04 05:28:41;;;;;;;;;;;7.80;99.90;;;;;;5063822;28;19995;-70
2023/01/04 05:31:07;;;;;;;;;;;7.80;99.90;;;;;;5064896;28;19958;-70
2023/01/04 05:33:33;;;;;;;;;;;7.90;99.90;;;;;;5083075;28;19912;-70
2023/01/04 05:35:59;;;;;;;;;;;7.80;99.90;;;;;;5076756;28;20365;-70
2023/01/04 05:38:24;;;;;;;;;;;7.90;99.90;;;;;;5068644;28;19912;-70
2023/01/04 05:40:51;;;;;;;;;;;7.80;99.90;;;;;;5084354;28;20499;-70
2023/01/04 05:43:17;;;;;;;;;;;7.90;99.90;;;;;;5085700;28;20381;-70
2023/01/04 05:45:45;;;;;;;;;;;7.90;99.90;;;;;;5080226;28;19912;-70
2023/01/04 05:48:11;;;;;;;;;;;7.90;99.90;;;;;;5065542;28;19960;-71
2023/01/04 05:50:36;;;;;;;;;;;7.90;99.90;;;;;;5065317;28;19955;-69
2023/01/04 05:53:02;;;;;;;;;;;7.90;99.90;;;;;;5066313;28;19920;-71
2023/01/04 05:55:28;;;;;;;;;;;7.90;99.90;;;;;;5064606;28;19966;-70
2023/01/04 05:57:53;;;;;;;;;;;7.90;99.90;;;;;;5082082;28;19912;-70
2023/01/04 06:00:19;;;;;;;;;;;7.90;99.90;;;;;;5089798;28;19908;-70
2023/01/04 06:02:44;;;;;;;;;;;7.90;99.90;;;;;;5077649;28;19908;-70
2023/01/04 06:05:10;;;;;;;;;;;7.90;99.90;;;;;;5068454;28;20011;-70
2023/01/04 06:07:37;;;;;;;;;;;8.00;99.90;;;;;;5069551;28;19973;-70
2023/01/04 06:10:02;;;;;;;;;;;7.90;99.90;;;;;;5070480;28;19924;-70
2023/01/04 06:12:28;;;;;;;;;;;8.00;99.90;;;;;;5069744;28;19913;-70
2023/01/04 06:14:53;;;;;;;;;;;8.00;99.90;;;;;;5068271;28;19927;-70
2023/01/04 06:17:19;;;;;;;;;;;7.90;99.90;;;;;;5068378;28;19908;-70
2023/01/04 06:19:45;;;;;;;;;;;8.00;99.90;;;;;;5069276;28;20010;-71
2023/01/04 06:22:10;;;;;;;;;;;8.00;99.90;;;;;;5069646;28;20308;-70
2023/01/04 06:24:36;;;;;;;;;;;8.00;99.90;;;;;;5069729;28;19913;-70
2023/01/04 06:27:01;;;;;;;;;;;8.00;99.90;;;;;;5072648;28;19991;-70
2023/01/04 06:29:27;;;;;;;;;;;8.00;99.90;;;;;;5068486;28;19934;-70
2023/01/04 06:31:53;;;;;;;;;;;8.00;99.90;;;;;;5067953;28;19912;-70
2023/01/04 06:34:18;;;;;;;;;;;8.00;99.90;;;;;;5069029;28;19923;-70
2023/01/04 06:36:44;;;;;;;;;;;8.00;99.90;;;;;;5081407;28;20006;-70
2023/01/04 06:39:09;;;;;;;;;;;8.00;99.90;;;;;;5080437;28;20378;-70
2023/01/04 06:41:35;;;;;;;;;;;8.00;99.90;;;;;;5067715;28;19912;-70
2023/01/04 06:44:00;;;;;;;;;;;8.10;99.90;;;;;;5069047;28;19920;-70
2023/01/04 06:46:26;;;;;;;;;;;8.10;99.90;;;;;;5069416;28;19964;-70
2023/01/04 06:48:52;;;;;;;;;;;8.10;99.90;;;;;;5068946;28;19913;-70
2023/01/04 06:51:18;;;;;;;;;;;8.10;99.90;;;;;;5068641;28;19987;-70
2023/01/04 06:53:44;;;;;;;;;;;8.10;99.90;;;;;;5068891;28;20006;-70
2023/01/04 06:56:10;;;;;;;;;;;8.10;99.90;;;;;;5069118;28;20007;-70
2023/01/04 06:58:35;;;;;;;;;;;8.10;99.90;;;;;;5073083;28;20019;-70
2023/01/04 07:01:01;;;;;;;;;;;8.10;99.90;;;;;;5068546;28;20459;-70
2023/01/04 07:03:26;;;;;;;;;;;8.10;99.90;;;;;;5068842;28;19920;-70
2023/01/04 07:05:52;;;;;;;;;;;8.10;99.90;;;;;;5074995;28;19930;-70
2023/01/04 07:08:18;;;;;;;;;;;8.10;99.90;;;;;;5086678;28;19916;-70
2023/01/04 07:10:43;;;;;;;;;;;8.10;99.90;;;;;;5068580;28;20587;-71
2023/01/04 07:13:09;;;;;;;;;;;8.10;99.90;;;;;;5068710;28;19923;-70
2023/01/04 07:15:35;;;;;;;;;;;8.10;99.90;;;;;;5068682;28;19924;-70
2023/01/04 07:18:00;;;;;;;;;;;8.20;99.90;;;;;;5068770;28;19913;-70
2023/01/04 07:20:26;;;;;;;;;;;8.20;99.90;;;;;;5068478;28;19912;-70
2023/01/04 07:22:52;;;;;;;;;;;8.20;99.90;;;;;;5068500;28;20627;-70
2023/01/04 07:25:17;;;;;;;;;;;8.20;99.90;;;;;;5068471;28;19987;-70
2023/01/04 07:27:43;;;;;;;;;;;8.20;99.90;;;;;;5071745;28;19935;-70
2023/01/04 07:30:09;;;;;;;;;;;8.20;99.90;;;;;;5067346;28;19916;-71
2023/01/04 07:32:34;;;;;;;;;;;8.20;99.90;;;;;;5068477;28;20377;-70
2023/01/04 07:35:00;;;;;;;;;;;8.20;99.90;;;;;;5068213;28;20551;-70
2023/01/04 07:37:25;;;;;;;;;;;8.20;99.90;;;;;;5087376;28;19912;-70
2023/01/04 07:39:51;;;;;;;;;;;8.20;99.90;;;;;;5072900;28;19913;-70
2023/01/04 07:42:18;;;;;;;;;;;8.20;99.90;;;;;;5067952;28;19958;-71
2023/01/04 07:44:44;;;;;;;;;;;8.20;99.90;;;;;;5067652;28;20015;-70
2023/01/04 07:47:09;;;;;;;;;;;8.20;99.90;;;;;;5067838;28;20423;-70
2023/01/04 07:49:35;;;;;;;;;;;8.30;99.90;;;;;;5066164;28;19931;-70
2023/01/04 07:52:01;;;;;;;;;;;8.30;99.90;;;;;;5067071;28;20624;-71
2023/01/04 07:54:26;;;;;;;;;;;8.30;99.90;;;;;;5067917;28;19916;-71
2023/01/04 07:56:52;;;;;;;;;;;8.30;99.90;;;;;;5071379;28;20391;-70
2023/01/04 07:59:19;;;;;;;;;;;8.30;99.90;;;;;;5087783;28;19912;-70
2023/01/04 08:01:45;;;;;;;;;;;8.30;99.90;;;;;;5086441;28;19940;-70
2023/01/04 08:04:11;;;;;;;;;;;8.30;99.90;;;;;;5085876;28;20281;-70
2023/01/04 08:06:37;;;;;;;;;;;8.30;99.90;;;;;;5079967;28;19947;-70
2023/01/04 08:09:03;;;;;;;;;;;8.30;99.90;;;;;;5079543;28;19916;-70
2023/01/04 08:11:29;;;;;;;;;;;8.30;99.90;;;;;;5067271;28;19913;-70
2023/01/04 08:13:54;;;;;;;;;;;8.30;99.90;;;;;;5067233;28;20001;-70
2023/01/04 08:16:30;;;;;;;;;;;8.30;99.90;;;;;;5067590;28;19918;-70
2023/01/04 08:19:00;;;;;;;;;;;8.30;99.90;;;;;;5065133;28;19912;-70
2023/01/04 08:21:27;;;;;;;;;;;8.30;99.90;;;;;;5067402;28;19935;-70
2023/01/04 08:23:52;;;;;;;;;;;8.40;99.90;;;;;;5067172;28;19913;-70
2023/01/04 08:26:18;;;;;;;;;;;8.30;99.90;;;;;;5067167;28;20008;-70
2023/01/04 08:28:43;;;;;;;;;;;8.40;99.90;;;;;;5066637;28;19919;-70
2023/01/04 08:31:11;;;;;;;;;;;8.40;99.90;;;;;;5065274;28;19915;-70
2023/01/04 08:33:37;;;;;;;;;;;8.40;99.90;;;;;;5066980;28;19938;-70
2023/01/04 08:36:16;;;;;;;;;;;8.40;99.90;;;;;;5074070;28;19916;-70
2023/01/04 08:38:41;;;;;;;;;;;8.40;99.90;;;;;;5081250;28;20273;-71
2023/01/04 08:41:07;;;;;;;;;;;8.40;99.90;;;;;;5066234;28;20018;-71
2023/01/04 08:43:34;;;;;;;;;;;8.40;99.90;;;;;;5065658;28;20284;-70
2023/01/04 08:46:01;;;;;;;;;;;8.40;99.90;;;;;;5066288;28;19908;-70
2023/01/04 08:48:26;;;;;;;;;;;8.50;99.90;;;;;;5065310;28;19966;-70
2023/01/04 08:50:52;;;;;;;;;;;8.50;99.90;;;;;;5065730;28;19916;-70
2023/01/04 08:53:17;;;;;;;;;;;8.50;99.90;;;;;;5066867;28;19912;-70
2023/01/04 08:55:50;;;;;;;;;;;8.50;99.90;;;;;;5066950;28;19920;-70
2023/01/04 08:58:15;;;;;;;;;;;8.50;99.90;;;;;;5082196;28;19966;-70
2023/01/04 09:00:40;;;;;;;;;;;8.60;99.90;;;;;;5086727;28;19912;-70
2023/01/04 09:03:06;;;;;;;;;;;8.60;99.90;;;;;;5085359;28;20655;-70
2023/01/04 09:05:34;;;;;;;;;;;8.60;99.90;;;;;;5081738;28;20007;-70
2023/01/04 09:08:00;;;;;;;;;;;8.60;99.90;;;;;;5066906;28;19912;-70
2023/01/04 09:10:25;;;;;;;;;;;8.60;99.90;;;;;;5084895;28;20605;-70
2023/01/04 09:12:51;;;;;;;;;;;8.70;99.90;;;;;;5085719;28;19970;-70
2023/01/04 09:15:17;;;;;;;;;;;8.70;99.90;;;;;;5084688;28;19920;-70
2023/01/04 09:17:43;;;;;;;;;;;8.70;99.90;;;;;;5066438;28;19916;-70
2023/01/04 09:20:08;;;;;;;;;;;8.70;99.90;;;;;;5066318;28;19961;-70
2023/01/04 09:22:34;;;;;;;;;;;8.70;99.90;;;;;;5066819;28;19952;-70
2023/01/04 09:25:00;;;;;;;;;;;8.80;99.90;;;;;;5066852;28;19919;-70
2023/01/04 09:27:25;;;;;;;;;;;8.80;99.90;;;;;;5066713;28;19920;-70
2023/01/04 09:29:51;;;;;;;;;;;8.80;99.90;;;;;;5065730;28;20004;-70
2023/01/04 09:32:16;;;;;;;;;;;8.80;99.90;;;;;;5063886;28;19923;-70
2023/01/04 09:34:42;;;;;;;;;;;8.80;99.90;;;;;;5059045;28;19949;-70
2023/01/04 09:37:07;;;;;;;;;;;8.80;99.90;;;;;;5071063;28;20373;-70
2023/01/04 09:39:33;;;;;;;;;;;8.90;99.90;;;;;;5079301;28;19917;-71
2023/01/04 09:42:02;;;;;;;;;;;8.80;99.90;;;;;;5070745;28;19912;-70
2023/01/04 09:44:35;;;;;;;;;;;8.90;99.90;;;;;;5070583;28;19916;-72
2023/01/04 09:47:05;;;;;;;;;;;8.90;99.90;;;;;;5070564;28;19913;-71
2023/01/04 09:49:37;;;;;;;;;;;8.90;99.90;;;;;;5069849;28;20499;-72
2023/01/04 09:52:08;;;;;;;;;;;8.90;99.90;;;;;;5070263;28;19944;-71
2023/01/04 09:54:39;;;;;;;;;;;8.90;99.90;;;;;;5070120;28;19916;-71
2023/01/04 09:57:09;;;;;;;;;;;8.90;99.90;;;;;;5102757;28;19912;-71
2023/01/04 09:59:34;;;;;;;;;;;9.00;99.90;;;;;;5102283;28;19912;-72
2023/01/04 10:02:03;;;;;;;;;;;9.00;99.90;;;;;;5069951;28;19958;-73
2023/01/04 10:04:39;;;;;;;;;;;9.00;99.90;;;;;;5069959;28;19912;-72
2023/01/04 10:07:09;;;;;;;;;;;9.00;99.90;;;;;;5086288;28;19912;-72
2023/01/04 10:09:35;;;;;;;;;;;9.00;99.90;;;;;;5076473;28;20607;-72
2023/01/04 10:12:05;;;;;;;;;;;9.00;99.90;;;;;;5069935;28;19912;-72
2023/01/04 10:14:36;;;;;;;;;;;9.00;99.90;;;;;;5069536;28;19920;-72
2023/01/04 10:17:10;;;;;;;;;;;9.00;99.90;;;;;;5069389;28;19927;-72
2023/01/04 10:19:45;;;;;;;;;;;9.10;99.90;;;;;;5068947;28;19919;-73
2023/01/04 10:22:14;;;;;;;;;;;9.10;99.90;;;;;;5069926;28;20350;-71
2023/01/04 10:24:45;;;;;;;;;;;9.10;99.90;;;;;;5069425;28;19909;-72
2023/01/04 10:27:16;;;;;;;;;;;9.10;99.90;;;;;;5070182;28;20381;-72
2023/01/04 10:29:51;;;;;;;;;;;9.10;99.90;;;;;;5061234;28;20006;-72
2023/01/04 10:32:35;;;;;;;;;;;9.10;99.90;;;;;;5069894;28;19919;-72
2023/01/04 10:35:01;;;;;;;;;;;9.20;99.90;;;;;;5069546;28;19917;-72
2023/01/04 10:37:35;;;;;;;;;;;9.20;99.90;;;;;;5088696;28;19912;-72
2023/01/04 10:40:01;;;;;;;;;;;9.20;99.90;;;;;;5073332;28;20556;-71
2023/01/04 10:42:31;;;;;;;;;;;9.20;99.90;;;;;;5068986;28;19912;-72
2023/01/04 10:45:06;;;;;;;;;;;9.20;99.90;;;;;;5069517;28;19948;-72
2023/01/04 10:47:36;;;;;;;;;;;9.20;99.90;;;;;;5053392;28;19912;-71
2023/01/04 10:50:08;;;;;;;;;;;9.20;99.90;;;;;;5068801;28;19944;-71
2023/01/04 10:52:42;;;;;;;;;;;9.20;99.90;;;;;;5069260;28;19916;-72
2023/01/04 10:55:16;;;;;;;;;;;9.20;99.90;;;;;;5068139;28;19943;-71
2023/01/04 10:57:44;;;;;;;;;;;9.20;99.90;;;;;;5080018;28;19915;-72
2023/01/04 11:00:12;;;;;;;;;;;9.30;99.90;;;;;;5089092;28;19996;-72
2023/01/04 11:02:43;;;;;;;;;;;9.20;99.90;;;;;;5076952;28;19908;-72
2023/01/04 11:05:18;;;;;;;;;;;9.30;99.90;;;;;;5068948;28;20382;-72
2023/01/04 11:07:46;;;;;;;;;;;9.30;99.90;;;;;;5089217;28;20041;-72
2023/01/04 11:10:14;;;;;;;;;;;9.30;99.90;;;;;;5071060;28;19966;-72
2023/01/04 11:12:39;;;;;;;;;;;9.30;99.90;;;;;;5069054;28;19919;-71
2023/01/04 11:15:05;;;;;;;;;;;9.30;99.90;;;;;;5068690;28;19920;-72
2023/01/04 11:17:31;;;;;;;;;;;9.30;99.90;;;;;;5068611;28;20015;-70
2023/01/04 11:19:57;;;;;;;;;;;9.40;99.90;;;;;;5068616;28;20573;-71
2023/01/04 11:22:26;;;;;;;;;;;9.30;99.90;;;;;;5068693;28;19916;-72
2023/01/04 11:24:55;;;;;;;;;;;9.40;99.90;;;;;;5068643;28;19912;-72
2023/01/04 11:27:23;;;;;;;;;;;9.30;99.90;;;;;;5071764;28;19913;-71
2023/01/04 11:29:51;;;;;;;;;;;9.40;99.90;;;;;;5068065;28;19999;-72
2023/01/04 11:32:26;;;;;;;;;;;9.40;99.90;;;;;;5068545;28;20480;-72
2023/01/04 11:34:58;;;;;;;;;;;9.40;99.90;;;;;;5068532;28;19916;-72
2023/01/04 11:37:26;;;;;;;;;;;9.40;99.90;;;;;;5086839;28;19912;-72
2023/01/04 11:40:09;;;;;;;;;;;9.50;99.90;;;;;;5073149;28;20332;-71
2023/01/04 11:42:34;;;;;;;;;;;9.50;99.90;;;;;;5068359;28;19912;-72
2023/01/04 11:45:00;;;;;;;;;;;9.50;99.90;;;;;;5068428;28;19912;-72
2023/01/04 11:47:27;;;;;;;;;;;9.50;99.90;;;;;;5068156;28;19935;-72
2023/01/04 11:49:53;;;;;;;;;;;9.50;99.90;;;;;;5067857;28;19913;-72
2023/01/04 11:52:32;;;;;;;;;;;9.50;99.90;;;;;;5067965;28;19948;-72
2023/01/04 11:55:16;;;;;;;;;;;9.50;99.90;;;;;;5066433;28;20545;-72
2023/01/04 11:57:42;;;;;;;;;;;9.50;99.90;;;;;;5077895;28;19912;-72
2023/01/04 12:00:08;;;;;;;;;;;9.50;99.90;;;;;;5086842;28;19908;-72
2023/01/04 12:02:34;;;;;;;;;;;9.50;99.90;;;;;;5086522;28;19967;-72
2023/01/04 12:04:59;;;;;;;;;;;9.60;99.90;;;;;;5081419;28;20591;-72
2023/01/04 12:07:25;;;;;;;;;;;9.60;99.90;;;;;;5066130;28;19924;-72
2023/01/04 12:09:50;;;;;;;;;;;9.60;99.90;;;;;;5068589;28;19912;-72
2023/01/04 12:12:16;;;;;;;;;;;9.60;99.90;;;;;;5067872;28;20008;-70
2023/01/04 12:14:47;;;;;;;;;;;9.60;99.90;;;;;;5065941;28;19920;-71
2023/01/04 12:17:15;;;;;;;;;;;9.60;99.90;;;;;;5067576;28;20444;-70
2023/01/04 12:19:42;;;;;;;;;;;9.70;99.90;;;;;;5067306;28;20297;-71
2023/01/04 12:22:29;;;;;;;;;;;9.70;99.90;;;;;;5067688;28;19913;-71
2023/01/04 12:24:55;;;;;;;;;;;9.70;99.90;;;;;;5068068;28;20046;-71
2023/01/04 12:27:21;;;;;;;;;;;9.70;99.90;;;;;;5070384;28;19913;-71
2023/01/04 12:29:46;;;;;;;;;;;9.70;99.90;;;;;;5065517;28;19953;-70
2023/01/04 12:32:12;;;;;;;;;;;9.70;99.90;;;;;;5067031;28;20219;-71
2023/01/04 12:34:39;;;;;;;;;;;9.70;99.90;;;;;;5067430;28;19916;-71
2023/01/04 12:37:05;;;;;;;;;;;9.70;99.90;;;;;;5067354;28;19909;-70
2023/01/04 12:39:43;;;;;;;;;;;9.70;99.90;;;;;;5067021;28;19912;-71
2023/01/04 12:42:09;;;;;;;;;;;9.80;99.90;;;;;;5066621;28;19921;-71
2023/01/04 12:44:37;;;;;;;;;;;9.80;99.90;;;;;;5077204;28;19968;-72
2023/01/04 12:49:56;;;;;;;;;;;9.80;99.90;;;;;;5066519;28;20019;-71
2023/01/04 12:52:22;;;;;;;;;;;9.80;99.90;;;;;;5066578;28;19912;-70
2023/01/04 12:54:47;;;;;;;;;;;9.80;99.90;;;;;;5062532;28;19944;-70
2023/01/04 12:57:16;;;;;;;;;;;9.80;99.90;;;;;;5068973;28;19916;-70
2023/01/04 12:59:57;;;;;;;;;;;9.80;99.90;;;;;;5066524;28;19922;-70
2023/01/04 13:02:26;;;;;;;;;;;9.80;99.90;;;;;;5065941;28;20353;-70
2023/01/04 13:04:54;;;;;;;;;;;9.80;99.90;;;;;;5063855;28;20321;-71
2023/01/04 13:07:22;;;;;;;;;;;9.80;99.90;;;;;;5066085;28;19970;-71
2023/01/04 13:09:52;;;;;;;;;;;9.80;99.90;;;;;;5068093;28;19989;-71
2023/01/04 13:12:37;;;;;;;;;;;9.80;99.90;;;;;;5066292;28;19919;-71
2023/01/04 13:15:04;;;;;;;;;;;9.80;99.90;;;;;;5065390;28;19927;-71
2023/01/04 13:17:37;;;;;;;;;;;9.90;99.90;;;;;;5064891;28;20137;-71
2023/01/04 13:20:16;;;;;;;;;;;9.80;99.90;;;;;;5066320;28;19916;-71
2023/01/04 13:22:50;;;;;;;;;;;9.80;99.90;;;;;;5065355;28;19916;-71
2023/01/04 13:25:17;;;;;;;;;;;9.90;99.90;;;;;;5066606;28;20462;-71
2023/01/04 13:27:55;;;;;;;;;;;9.90;99.90;;;;;;5066687;28;19969;-71
2023/01/04 13:30:37;;;;;;;;;;;9.90;99.90;;;;;;5064584;28;19965;-71
2023/01/04 13:33:07;;;;;;;;;;;9.90;99.90;;;;;;5066881;28;19913;-71
2023/01/04 13:35:32;;;;;;;;;;;9.90;99.90;;;;;;5066151;28;20284;-71
2023/01/04 13:37:59;;;;;;;;;;;9.90;99.90;;;;;;5065368;28;19912;-71
2023/01/04 13:40:25;;;;;;;;;;;9.90;99.90;;;;;;5065859;28;19920;-71
2023/01/04 13:43:16;;;;;;;;;;;9.90;99.90;;;;;;5066809;28;19912;-71
2023/01/04 13:46:02;;;;;;;;;;;9.90;99.90;;;;;;5065009;28;19915;-71
2023/01/04 13:48:30;;;;;;;;;;;9.90;99.90;;;;;;5066168;28;19995;-71
2023/01/04 13:51:02;;;;;;;;;;;9.90;99.90;;;;;;5066144;28;20016;-71
2023/01/04 13:53:28;;;;;;;;;;;9.90;99.90;;;;;;5066404;28;19915;-71
2023/01/04 13:55:58;;;;;;;;;;;9.90;99.90;;;;;;5066569;28;19956;-71
2023/01/04 13:58:25;;;;;;;;;;;10.00;99.90;;;;;;5073381;28;19951;-71
2023/01/04 14:00:57;;;;;;;;;;;10.00;99.90;;;;;;5065960;28;19916;-71
2023/01/04 14:03:25;;;;;;;;;;;10.00;99.90;;;;;;5064592;28;20005;-71
2023/01/04 14:05:53;;;;;;;;;;;10.00;99.90;;;;;;5066270;28;20412;-72
2023/01/04 14:08:29;;;;;;;;;;;10.00;99.90;;;;;;5066280;28;20621;-71
2023/01/04 14:10:56;;;;;;;;;;;10.00;99.90;;;;;;5066227;28;19912;-71
2023/01/04 14:13:22;;;;;;;;;;;10.00;99.90;;;;;;5065956;28;20428;-71
2023/01/04 14:16:02;;;;;;;;;;;10.00;99.90;;;;;;5066037;28;19916;-71
2023/01/04 14:18:28;;;;;;;;;;;10.10;99.90;;;;;;5068664;28;19913;-71
2023/01/04 14:20:54;;;;;;;;;;;10.10;99.90;;;;;;5069537;28;19947;-71
2023/01/04 14:23:26;;;;;;;;;;;10.00;99.90;;;;;;5069770;28;19959;-71
2023/01/04 14:25:55;;;;;;;;;;;10.10;99.90;;;;;;5069753;28;19912;-71
2023/01/04 14:28:23;;;;;;;;;;;10.00;99.90;;;;;;5072867;28;20349;-72
2023/01/04 14:30:55;;;;;;;;;;;10.10;99.90;;;;;;5069274;28;19912;-72
2023/01/04 14:33:31;;;;;;;;;;;10.10;99.90;;;;;;5069564;28;20023;-72
2023/01/04 14:36:10;;;;;;;;;;;10.10;99.90;;;;;;5069362;28;20428;-72
2023/01/04 14:38:36;;;;;;;;;;;10.10;99.90;;;;;;5067810;28;19987;-72
2023/01/04 14:41:20;;;;;;;;;;;10.10;99.90;;;;;;5069231;28;19939;-72
2023/01/04 14:43:46;;;;;;;;;;;10.10;99.90;;;;;;5069077;28;19975;-71
2023/01/04 14:46:11;;;;;;;;;;;10.10;99.90;;;;;;5069001;28;20425;-72
2023/01/04 14:48:37;;;;;;;;;;;10.10;99.90;;;;;;5068987;28;19909;-71
2023/01/04 14:51:03;;;;;;;;;;;10.10;99.90;;;;;;5069003;28;19948;-71
2023/01/04 14:53:29;;;;;;;;;;;10.10;99.90;;;;;;5068907;28;19912;-71
2023/01/04 14:55:54;;;;;;;;;;;10.10;99.90;;;;;;5069263;28;19939;-71
2023/01/04 14:58:20;;;;;;;;;;;10.10;99.90;;;;;;5085339;28;19946;-72
2023/01/04 15:00:46;;;;;;;;;;;10.10;99.90;;;;;;5088970;28;19912;-71
2023/01/04 15:03:11;;;;;;;;;;;10.10;99.90;;;;;;5089037;28;19912;-71
2023/01/04 15:05:37;;;;;;;;;;;10.10;99.90;;;;;;5084953;28;19943;-72
2023/01/04 15:08:02;;;;;;;;;;;10.10;99.90;;;;;;5069052;28;19919;-72
2023/01/04 15:10:28;;;;;;;;;;;10.10;99.90;;;;;;5101132;28;20023;-71
2023/01/04 15:12:54;;;;;;;;;;;10.10;99.90;;;;;;5068897;28;19955;-70
2023/01/04 15:15:20;;;;;;;;;;;10.10;99.90;;;;;;5068528;28;20555;-71
2023/01/04 15:17:46;;;;;;;;;;;10.10;99.90;;;;;;5068006;28;19913;-71
2023/01/04 15:20:11;;;;;;;;;;;10.10;99.90;;;;;;5068031;28;19920;-71
2023/01/04 15:22:37;;;;;;;;;;;10.10;99.90;;;;;;5068101;28;19912;-72